Latest Weather Observations for Hopetoun Airport

IDV60801

Issued at 8:22 pm EDT Friday 18 January 2019 (issued every 10 minutes, with the page automatically refreshed every 10 minutes)

About weather observations | Map of weather stations | Latest weather observations for VIC | Other Formats
Station Details ID: 077010 Name: HOPETOUN AIRPORT Lat: -35.72 Lon: 142.36 Height: 77.3 m
Data from the previous 72 hours. | See also: Recent months at Hopetoun Airport
Date/Time
EDT
Temp
°C
App
Temp
°C
Dew
Point
°C
Rel
Hum
%
Delta-T
°C
Wind Press
QNH
hPa
Press
MSL
hPa
Rain since
9am
mm
Dir  Spd
km/h
Gust
km/h
Spd
kts
Gust
kts
18/08:00pm 24.9 22.0 12.2 45 7.3 SW 19 26 10 14 1012.9 1012.6 0.0
18/07:30pm 25.3 22.9 13.8 49 6.8 SW 19 28 10 15 1012.9 1012.6 0.0
18/07:00pm 25.6 22.9 14.7 51 6.5 SW 22 30 12 16 1012.8 1012.5 0.0
18/06:30pm 26.1 24.3 16.1 54 6.1 SW 20 28 11 15 1011.8 1011.5 0.0
18/06:00pm 26.8 23.8 14.9 48 7.2 SW 24 32 13 17 1010.6 1010.2 0.0
18/05:30pm 27.6 23.4 14.6 45 7.9 SW 30 39 16 21 1011.4 1011.1 0.0
18/05:00pm 27.9 25.0 16.2 49 7.3 SW 26 33 14 18 1011.7 1011.4 0.0
18/04:30pm 29.1 25.0 16.0 45 8.1 WSW 32 37 17 20 1011.4 1011.1 0.0
18/04:00pm 29.7 27.4 15.8 43 8.6 SW 22 32 12 17 1010.6 1010.2 0.0
18/03:30pm 29.8 26.8 15.9 43 8.6 SW 26 35 14 19 1010.3 1009.9 0.0
18/03:00pm 28.5 25.0 16.4 48 7.5 SW 30 39 16 21 1010.8 1010.4 0.0
18/02:30pm 30.2 25.5 15.9 42 8.9 SW 35 46 19 25 1010.4 1010.0 0.0
18/02:00pm 32.2 27.5 14.8 35 10.7 SW 33 46 18 25 1009.5 1009.1 0.0
18/01:30pm 34.2 28.5 13.1 28 12.8 SW 35 44 19 24 1008.8 1008.4 0.0
18/01:00pm 36.3 33.5 12.5 24 14.4 W 19 32 10 17 1008.4 1008.0 0.0
18/12:30pm 35.4 34.6 13.0 26 13.6 SW 9 17 5 9 1008.6 1008.2 0.0
18/12:00pm 34.2 31.4 12.5 27 13.0 SSW 19 26 10 14 1008.6 1008.2 0.0
18/11:30am 33.8 32.9 12.7 27 12.7 S 9 15 5 8 1008.5 1008.1 0.0
18/11:00am 32.5 32.0 13.7 32 11.4 SSE 9 13 5 7 1008.5 1008.1 0.0
18/10:30am 31.2 30.4 13.9 35 10.5 SSE 11 15 6 8 1008.5 1008.1 0.0
18/10:00am 31.5 30.2 13.7 33 10.8 S 13 19 7 10 1008.7 1008.3 0.0
18/09:30am 30.3 29.5 14.0 37 9.9 S 11 15 6 8 1009.0 1008.6 0.0
18/09:00am 29.3 26.4 13.9 39 9.3 SSW 22 28 12 15 1009.0 1008.6 0.0
18/08:30am 29.2 28.5 14.2 40 9.1 S 11 20 6 11 1008.7 1008.3 0.0
18/08:00am 28.2 27.5 14.4 42 8.3 ESE 11 15 6 8 1007.8 1007.4 0.0
18/07:30am 27.2 25.7 14.2 44 7.8 ESE 15 20 8 11 1007.1 1006.7 0.0
18/07:00am 27.0 25.1 14.1 45 7.7 ESE 17 20 9 11 1007.2 1006.8 0.0
18/06:30am 26.9 24.9 14.0 45 7.7 SE 17 22 9 12 1007.0 1006.6 0.0
18/06:00am 26.7 25.8 13.8 45 7.7 SE 11 17 6 9 1007.1 1006.7 0.0
18/05:30am 26.9 25.6 13.6 44 7.9 ESE 13 17 7 9 1007.2 1006.8 0.0
18/05:00am 27.3 25.2 13.6 43 8.2 E 17 24 9 13 1006.8 1006.4 0.0
18/04:30am 27.4 25.0 13.7 43 8.2 ESE 19 22 10 12 1006.5 1006.1 0.0
18/04:00am 27.4 24.4 13.7 43 8.2 E 22 28 12 15 1006.7 1006.3 0.0
18/03:30am 27.8 25.6 13.3 40 8.6 E 17 20 9 11 1007.1 1006.7 0.0
18/03:00am 27.9 25.7 13.4 40 8.6 ESE 17 22 9 12 1007.0 1006.6 0.0
18/02:30am 28.1 26.0 13.6 41 8.6 SE 17 24 9 13 1007.1 1006.7 0.0
18/02:00am 28.4 27.0 13.5 40 8.9 SSE 13 19 7 10 1007.9 1007.5 0.0
18/01:30am 28.3 26.5 13.4 40 8.9 SSE 15 20 8 11 1008.3 1007.9 0.0
18/01:00am 28.6 26.8 13.3 39 9.1 S 15 20 8 11 1008.6 1008.2 0.0
18/12:30am 28.7 27.3 13.4 39 9.1 S 13 19 7 10 1008.8 1008.4 0.0
18/12:00am 29.3 26.7 13.1 37 9.6 S 19 26 10 14 1009.2 1008.8 0.0
 
Date/Time
EDT
Temp
°C
App
Temp
°C
Dew
Point
°C
Rel
Hum
%
Delta-T
°C
Wind Press
QNH
hPa
Press
MSL
hPa
Rain since
9am
mm
Dir  Spd
km/h
Gust
km/h
Spd
kts
Gust
kts
17/11:30pm 29.2 27.3 13.0 37 9.6 SSW 15 20 8 11 1009.6 1009.2 0.0
17/11:00pm 29.5 27.9 12.9 36 9.8 S 13 19 7 10 1009.6 1009.2 0.0
17/10:30pm 29.7 27.7 12.6 35 10.1 S 15 20 8 11 1009.2 1008.8 0.0
17/10:00pm 30.1 27.4 13.0 35 10.2 S 19 28 10 15 1009.2 1008.8 0.0
17/09:30pm 30.7 27.0 12.6 33 10.7 S 24 37 13 20 1008.9 1008.5 0.0
17/09:00pm 31.6 27.8 12.4 31 11.4 S 24 33 13 18 1008.6 1008.2 0.0
17/08:30pm 32.7 27.7 12.3 28 12.1 S 30 44 16 24 1008.0 1007.6 0.0
17/08:00pm 34.2 30.1 11.4 25 13.5 S 24 35 13 19 1007.8 1007.4 0.0
17/07:30pm 35.8 31.5 10.8 22 14.7 S 24 35 13 19 1007.3 1006.9 0.0
17/07:00pm 36.4 32.1 10.6 21 15.2 S 24 33 13 18 1006.6 1006.2 0.0
17/06:30pm 37.5 35.7 10.7 20 15.9 SSE 11 20 6 11 1006.3 1005.9 0.0
17/06:00pm 37.8 35.3 11.0 20 16.0 SSW 15 22 8 12 1006.4 1006.0 0.0
17/05:30pm 38.0 35.1 11.1 20 16.1 S 17 30 9 16 1006.5 1006.1 0.0
17/05:00pm 38.2 36.1 11.3 20 16.1 SW 13 24 7 13 1006.7 1006.3 0.0
17/04:30pm 38.5 36.1 11.5 20 16.2 SSW 15 28 8 15 1006.8 1006.4 0.0
17/04:00pm 39.7 36.7 12.5 20 16.7 SSE 20 33 11 18 1007.0 1006.6 0.0
17/03:30pm 38.9 35.5 11.1 19 16.6 SW 20 28 11 15 1007.3 1006.9 0.0
17/03:00pm 39.0 34.8 11.2 19 16.7 S 24 39 13 21 1007.5 1007.1 0.0
17/02:30pm 38.8 35.7 10.2 18 16.9 SW 17 30 9 16 1007.6 1007.2 0.0
17/02:00pm 38.7 35.8 10.9 19 16.6 S 17 32 9 17 1007.9 1007.5 0.0
17/01:30pm 38.5 35.0 10.8 19 16.5 SSW 20 32 11 17 1008.2 1007.8 0.0
17/01:00pm 37.3 34.1 11.3 21 15.5 SSW 19 37 10 20 1008.6 1008.2 0.0
17/12:30pm 36.5 33.7 11.3 22 15.0 SSW 17 28 9 15 1008.7 1008.3 0.0
17/12:00pm 35.9 33.0 10.9 22 14.8 S 17 30 9 16 1008.8 1008.4 0.0
17/11:30am 35.6 34.5 11.9 24 14.2 SSE 9 15 5 8 1009.1 1008.7 0.0
17/11:00am 34.9 33.8 12.0 25 13.7 S 9 13 5 7 1009.0 1008.6 0.0
17/10:30am 34.6 32.7 12.9 27 13.1 SSE 15 22 8 12 1009.2 1008.8 0.0
17/10:00am 33.5 30.5 12.5 28 12.6 SSE 20 30 11 16 1010.1 1009.7 0.0
17/09:30am 30.8 28.3 12.2 32 11.0 SSE 17 26 9 14 1010.1 1009.7 0.0
17/09:00am 28.9 26.4 12.3 36 9.7 SSE 17 24 9 13 1009.9 1009.5 0.0
17/08:30am 29.0 26.0 12.0 35 9.9 S 19 28 10 15 1009.9 1009.5 0.0
17/08:00am 27.8 25.5 13.0 40 8.7 SSW 17 24 9 13 1009.7 1009.3 0.0
17/07:30am 27.3 23.7 12.9 41 8.5 SW 24 33 13 18 1009.7 1009.3 0.0
17/07:00am 27.9 23.4 11.5 36 9.5 SW 26 37 14 20 1009.3 1008.9 0.0
17/06:30am 27.0 24.0 10.7 36 9.2 WSW 17 33 9 18 1008.8 1008.4 0.0
17/06:00am 26.4 25.7 10.1 36 9.1 N 4 6 2 3 1007.6 1007.2 0.0
17/05:30am 27.3 25.8 10.5 35 9.5 NNE 9 11 5 6 1007.3 1006.9 0.0
17/05:00am 27.1 26.6 10.8 36 9.3 NNE 4 7 2 4 1007.0 1006.6 0.0
17/04:30am 27.6 26.2 10.8 35 9.5 NE 9 11 5 6 1007.0 1006.6 0.0
17/04:00am 27.5 25.3 10.7 35 9.5 NE 13 15 7 8 1006.7 1006.3 0.0
17/03:30am 27.5 26.0 10.7 35 9.5 NE 9 13 5 7 1007.1 1006.7 0.0
17/03:00am 27.3 25.9 9.6 33 9.9 ENE 7 13 4 7 1007.0 1006.6 0.0
17/02:30am 27.7 26.0 10.0 33 9.9 ENE 9 13 5 7 1007.3 1006.9 0.0
17/02:00am 28.9 27.6 10.1 31 10.6 ESE 7 13 4 7 1007.7 1007.3 0.0
17/01:30am 29.6 28.4 9.7 29 11.2 ENE 6 7 3 4 1008.8 1008.4 0.0
17/01:00am 30.4 28.9 9.3 27 11.9 ESE 7 15 4 8 1008.9 1008.5 0.0
17/12:30am 31.2 30.0 9.4 26 12.3 NE 6 9 3 5 1009.2 1008.8 0.0
17/12:00am 31.3 29.9 9.5 26 12.4 NNE 7 11 4 6 1008.6 1008.2 0.0
 
Date/Time
EDT
Temp
°C
App
Temp
°C
Dew
Point
°C
Rel
Hum
%
Delta-T
°C
Wind Press
QNH
hPa
Press
MSL
hPa
Rain since
9am
mm
Dir  Spd
km/h
Gust
km/h
Spd
kts
Gust
kts
16/11:30pm 31.9 29.9 8.8 24 13.0 ENE 9 13 5 7 1008.1 1007.7 0.0
16/11:00pm 32.2 28.6 9.7 25 12.9 E 19 24 10 13 1008.2 1007.8 0.0
16/10:30pm 31.6 28.9 10.3 27 12.2 E 15 22 8 12 1008.6 1008.2 0.0
16/10:00pm 31.3 29.3 10.1 27 12.1 E 11 13 6 7 1008.4 1008.0 0.0
16/09:30pm 32.0 30.7 10.1 26 12.6 SE 7 11 4 6 1008.4 1008.0 0.0
16/09:00pm 32.7 30.7 10.1 25 13.0 SSE 11 15 6 8 1008.3 1007.9 0.0
16/08:30pm 33.5 32.3 10.2 24 13.5 SSE 7 11 4 6 1008.1 1007.7 0.0
16/08:00pm 34.3 30.8 10.2 23 14.0 SSE 19 24 10 13 1007.3 1006.9 0.0
16/07:30pm 36.0 31.9 8.0 18 15.8 SSE 19 28 10 15 1007.5 1007.1 0.0
16/07:00pm 37.8 33.5 1.0 10 18.9 S 13 19 7 10 1007.1 1006.7 0.0
16/06:30pm 37.7 32.6 0.9 10 18.8 SSE 17 22 9 12 1006.6 1006.2 0.0
16/06:00pm 38.5 32.3 0.0 9 19.5 S 22 32 12 17 1006.6 1006.2 0.0
16/05:30pm 39.1 32.6 0.5 9 19.8 S 24 32 13 17 1006.6 1006.2 0.0
16/05:00pm 39.6 32.2 -0.8 8 20.4 SSW 28 39 15 21 1007.0 1006.6 0.0
16/04:30pm 40.7 34.2 0.0 8 20.9 SW 24 35 13 19 1007.1 1006.7 0.0
16/04:00pm 41.9 35.8 2.6 9 21.1 SW 24 33 13 18 1007.1 1006.7 0.0
16/03:30pm 43.3 38.8 1.9 8 22.1 WSW 15 28 8 15 1007.3 1006.9 0.0
16/03:00pm 41.1 34.5 2.0 9 20.7 SW 26 33 14 18 1007.7 1007.3 0.0
16/02:30pm 43.1 37.5 3.4 9 21.7 SW 22 33 12 18 1007.7 1007.3 0.0
16/02:00pm 41.9 36.2 2.6 9 21.1 WSW 22 33 12 18 1008.0 1007.6 0.0
16/01:30pm 42.4 36.4 1.3 8 21.7 W 22 33 12 18 1008.2 1007.8 0.0
16/01:00pm 41.5 37.4 2.3 9 20.9 W 13 24 7 13 1008.6 1008.2 0.0
16/12:30pm 40.5 37.7 3.0 10 20.1 NW 7 13 4 7 1008.8 1008.4 0.0
16/12:00pm 38.8 36.8 4.3 12 18.7 WSW 4 9 2 5 1008.8 1008.4 0.0
16/11:30am 37.7 35.4 4.6 13 17.9 SSW 6 9 3 5 1008.9 1008.5 0.0
16/11:00am 36.7 34.8 4.9 14 17.2 E 4 7 2 4 1008.7 1008.3 0.0
16/10:30am 34.0 31.3 5.5 17 15.3 ESE 9 13 5 7 1008.6 1008.2 0.0
16/10:00am 31.9 29.9 6.9 21 13.6 SE 7 13 4 7 1009.0 1008.6 0.0
16/09:30am 29.6 26.9 5.6 22 12.6 SSE 9 11 5 6 1009.4 1009.0 0.0
16/09:00am 27.8 25.1 5.4 24 11.6 SE 9 11 5 6 1009.4 1009.0 0.0
16/08:30am 25.8 23.3 4.9 26 10.6 SE 7 9 4 5 1009.3 1008.9 0.0
16/08:00am 23.6 21.2 4.5 29 9.5 SSE 6 9 3 5 1009.2 1008.8 0.0
16/07:30am 22.3 18.8 3.4 29 9.1 S 11 20 6 11 1008.9 1008.5 0.0
16/07:00am 21.8 18.7 3.5 30 8.8 SSE 9 11 5 6 1008.4 1008.0 0.0
16/06:30am 21.7 18.4 2.4 28 9.1 S 9 13 5 7 1008.3 1007.9 0.0
16/06:00am 22.3 19.3 1.9 26 9.6 SSE 7 9 4 5 1007.9 1007.5 0.0
16/05:30am 23.2 19.8 2.1 25 10.0 SSE 9 11 5 6 1007.7 1007.3 0.0
16/05:00am 23.3 19.5 1.6 24 10.2 SSE 11 13 6 7 1007.6 1007.2 0.0
16/04:30am 23.4 19.9 1.1 23 10.4 SSE 9 13 5 7 1007.7 1007.3 0.0
16/04:00am 22.5 19.7 3.1 28 9.3 S 7 15 4 8 1007.6 1007.2 0.0
16/03:30am 24.1 21.4 2.9 25 10.3 SE 6 7 3 4 1007.6 1007.2 0.0
16/03:00am 23.1 21.5 2.6 26 9.8 CALM 0 0 0 0 1008.2 1007.8 0.0
16/02:30am 24.7 22.7 2.2 23 10.8 SE 2 4 1 2 1008.2 1007.8 0.0
16/02:00am 24.9 22.6 3.0 24 10.7 ESE 4 6 2 3 1008.3 1007.9 0.0
16/01:30am 25.4 23.3 4.0 25 10.7 SE 4 6 2 3 1008.6 1008.2 0.0
16/01:00am 26.6 24.3 2.5 21 11.8 SE 4 6 2 3 1008.7 1008.3 0.0
16/12:30am 27.1 24.6 1.5 19 12.3 SSE 4 6 2 3 1008.7 1008.3 0.0
16/12:00am 26.8 24.2 3.3 22 11.7 E 6 7 3 4 1008.5 1008.1 0.0
 
Date/Time
EDT
Temp
°C
App
Temp
°C
Dew
Point
°C
Rel
Hum
%
Delta-T
°C
Wind Press
QNH
hPa
Press
MSL
hPa
Rain since
9am
mm
Dir  Spd
km/h
Gust
km/h
Spd
kts
Gust
kts
15/11:30pm 26.8 23.9 2.7 21 11.8 ESE 7 9 4 5 1008.7 1008.3 0.0
15/11:00pm 31.4 27.5 -1.4 12 15.5 SSE 9 11 5 6 1008.9 1008.5 0.0
15/10:30pm 33.5 28.6 -3.7 9 17.2 S 13 15 7 8 1008.8 1008.4 0.0
15/10:00pm 33.7 29.7 -2.1 10 17.0 S 9 11 5 6 1008.6 1008.2 0.0
15/09:30pm 33.7 29.9 -0.8 11 16.7 S 9 9 5 5 1008.4 1008.0 0.0
15/09:00pm 36.0 32.2 -0.4 10 18.1 S 9 11 5 6 1008.0 1007.6 0.0
15/08:30pm 37.7 33.5 -0.6 9 19.1 S 11 15 6 8 1007.8 1007.4 0.0

Other Formats:

Comma delimited format used in spreadsheet applications
http://www.bom.gov.au/fwo/IDV60801/IDV60801.94838.axf

JavaScript Object Notation format (JSON) in row-major order
http://www.bom.gov.au/fwo/IDV60801/IDV60801.94838.json